createdAt,value
2023-04-08T00:02:17.676Z,21.30
2023-04-08T00:04:44.362Z,19.97
2023-04-08T00:07:11.286Z,27.63
2023-04-08T00:09:38.710Z,22.73
2023-04-08T00:12:05.959Z,22.67
2023-04-08T00:14:32.593Z,22.00
2023-04-08T00:17:01.035Z,23.27
2023-04-08T00:19:27.629Z,20.73
2023-04-08T00:21:54.210Z,19.77
2023-04-08T00:24:20.871Z,23.07
2023-04-08T00:26:47.485Z,18.53
2023-04-08T00:29:14.264Z,20.03
2023-04-08T00:31:40.855Z,17.83
2023-04-08T00:34:07.467Z,21.03
2023-04-08T00:36:34.731Z,17.67
2023-04-08T00:39:01.429Z,22.67
2023-04-08T00:41:28.043Z,19.67
2023-04-08T00:43:54.635Z,20.47
2023-04-08T00:46:21.879Z,15.90
2023-04-08T00:48:48.785Z,21.67
2023-04-08T00:51:17.054Z,20.77
2023-04-08T00:53:43.691Z,18.70
2023-04-08T00:56:11.222Z,16.43
2023-04-08T00:58:38.671Z,18.57
2023-04-08T01:01:17.471Z,17.93
2023-04-08T01:03:46.755Z,18.43
2023-04-08T01:06:22.524Z,15.97
2023-04-08T01:08:51.639Z,16.10
2023-04-08T01:11:19.007Z,17.37
2023-04-08T01:13:47.738Z,18.83
2023-04-08T01:16:16.910Z,20.10
2023-04-08T01:18:46.450Z,21.13
2023-04-08T01:21:15.093Z,21.47
2023-04-08T01:23:53.336Z,20.20
2023-04-08T01:26:24.462Z,17.20
2023-04-08T01:28:53.773Z,18.20
2023-04-08T01:31:22.590Z,15.57
2023-04-08T01:33:50.307Z,16.87
2023-04-08T01:36:20.958Z,18.87
2023-04-08T01:38:48.940Z,21.87
2023-04-08T01:41:17.695Z,28.53
2023-04-08T01:43:44.957Z,30.37
2023-04-08T01:46:13.736Z,25.47
2023-04-08T01:48:40.913Z,24.60
2023-04-08T01:51:09.223Z,20.23
2023-04-08T01:53:35.949Z,19.13
2023-04-08T01:56:07.340Z,20.77
2023-04-08T01:58:39.913Z,18.37
2023-04-08T02:01:12.325Z,20.07
2023-04-08T02:03:42.955Z,19.83
2023-04-08T02:06:09.812Z,21.80
2023-04-08T02:08:36.774Z,15.10
2023-04-08T02:11:04.140Z,17.77
2023-04-08T02:13:31.773Z,18.77
2023-04-08T02:16:06.627Z,12.77
2023-04-08T02:18:37.600Z,17.93
2023-04-08T02:21:16.251Z,17.90
2023-04-08T02:23:49.448Z,17.93
2023-04-08T02:26:18.177Z,20.53
2023-04-08T02:28:46.157Z,16.63
2023-04-08T02:31:14.313Z,20.50
2023-04-08T02:33:42.880Z,16.63
2023-04-08T02:36:11.302Z,17.43
2023-04-08T02:38:37.934Z,15.43
2023-04-08T02:41:04.685Z,14.90
2023-04-08T02:43:34.569Z,13.33
2023-04-08T02:46:04.767Z,16.17
2023-04-08T02:48:32.368Z,16.77
2023-04-08T02:50:58.979Z,13.10
2023-04-08T02:53:25.801Z,15.97
2023-04-08T02:55:52.595Z,16.63
2023-04-08T02:58:19.265Z,19.83
2023-04-08T03:00:46.237Z,22.10
2023-04-08T03:03:12.937Z,16.00
2023-04-08T03:05:39.651Z,21.53
2023-04-08T03:08:06.956Z,23.77
2023-04-08T03:10:33.641Z,21.50
2023-04-08T03:13:00.461Z,25.83
2023-04-08T03:15:27.510Z,23.03
2023-04-08T03:17:54.397Z,23.87
2023-04-08T03:20:21.021Z,23.77
2023-04-08T03:22:47.735Z,22.30
2023-04-08T03:25:14.329Z,22.43
2023-04-08T03:27:40.986Z,20.13
2023-04-08T03:30:08.273Z,24.90
2023-04-08T03:32:35.195Z,24.47
2023-04-08T03:35:01.876Z,25.37
2023-04-08T03:37:28.435Z,31.00
2023-04-08T03:39:55.463Z,26.37
2023-04-08T03:42:22.144Z,27.40
2023-04-08T03:44:48.728Z,29.23
2023-04-08T03:47:15.449Z,31.20
2023-04-08T03:49:41.990Z,33.50
2023-04-08T03:52:08.595Z,30.00
2023-04-08T03:54:35.240Z,42.83
2023-04-08T03:57:01.869Z,36.60
2023-04-08T03:59:28.408Z,34.77
2023-04-08T04:01:55.026Z,32.77
2023-04-08T04:04:21.960Z,32.40
2023-04-08T04:06:48.703Z,39.73
2023-04-08T04:09:16.893Z,35.07
2023-04-08T04:11:43.624Z,35.07
2023-04-08T04:14:10.307Z,37.60
2023-04-08T04:16:39.689Z,33.90
2023-04-08T04:19:06.268Z,31.13
2023-04-08T04:21:32.835Z,32.13
2023-04-08T04:23:59.397Z,35.83
2023-04-08T04:26:26.246Z,35.53
2023-04-08T04:28:52.990Z,33.47
2023-04-08T04:31:26.653Z,27.43
2023-04-08T04:33:53.495Z,25.80
2023-04-08T04:36:20.067Z,25.87
2023-04-08T04:38:48.861Z,29.60
2023-04-08T04:41:17.063Z,29.60
2023-04-08T04:43:43.716Z,31.37
2023-04-08T04:46:10.966Z,35.87
2023-04-08T04:48:37.623Z,28.80
2023-04-08T04:51:04.423Z,30.50
2023-04-08T04:53:31.905Z,32.10
2023-04-08T04:55:58.882Z,29.23
2023-04-08T04:58:25.637Z,25.70
2023-04-08T05:00:52.250Z,31.97
2023-04-08T05:03:19.018Z,28.03
2023-04-08T05:05:46.155Z,29.33
2023-04-08T05:08:12.750Z,28.37
2023-04-08T05:10:41.510Z,34.13
2023-04-08T05:13:08.210Z,29.10
2023-04-08T05:15:35.834Z,32.97
2023-04-08T05:18:02.726Z,30.60
2023-04-08T05:20:29.892Z,29.53
2023-04-08T05:22:56.502Z,40.73
2023-04-08T05:25:24.310Z,33.37
2023-04-08T05:27:50.892Z,27.97
2023-04-08T05:30:17.530Z,27.77
2023-04-08T05:32:44.259Z,26.37
2023-04-08T05:35:10.833Z,26.03
2023-04-08T05:37:37.385Z,28.87
2023-04-08T05:40:04.298Z,25.23
2023-04-08T05:42:32.259Z,28.80
2023-04-08T05:44:59.056Z,25.23
2023-04-08T05:47:25.677Z,28.40
2023-04-08T05:49:52.551Z,23.87
2023-04-08T05:52:19.218Z,29.97
2023-04-08T05:54:45.971Z,29.47
2023-04-08T05:57:12.558Z,26.53
2023-04-08T05:59:39.116Z,24.63
2023-04-08T06:02:06.092Z,27.17
2023-04-08T06:04:32.756Z,26.57
2023-04-08T06:07:01.088Z,32.93
2023-04-08T06:09:27.608Z,28.47
2023-04-08T06:11:54.320Z,32.40
2023-04-08T06:14:20.999Z,30.07
2023-04-08T06:16:48.458Z,32.07
2023-04-08T06:19:15.011Z,30.23
2023-04-08T06:21:41.803Z,34.10
2023-04-08T06:24:08.375Z,32.67
2023-04-08T06:26:34.959Z,31.27
2023-04-08T06:29:02.158Z,39.87
2023-04-08T06:31:28.810Z,29.77
2023-04-08T06:33:56.144Z,32.80
2023-04-08T06:36:22.755Z,31.67
2023-04-08T06:38:49.625Z,38.07
2023-04-08T06:41:16.538Z,34.73
2023-04-08T06:43:43.211Z,29.03
2023-04-08T06:46:09.835Z,30.70
2023-04-08T06:48:37.913Z,33.70
2023-04-08T06:51:04.730Z,28.67
2023-04-08T06:53:33.062Z,34.60
2023-04-08T06:56:00.468Z,30.93
2023-04-08T06:58:27.437Z,33.97
2023-04-08T07:00:55.953Z,33.93
2023-04-08T07:03:23.291Z,26.10
2023-04-08T07:05:49.945Z,31.73
2023-04-08T07:08:16.485Z,29.67
2023-04-08T07:10:43.374Z,26.67
2023-04-08T07:13:09.998Z,25.83
2023-04-08T07:15:37.073Z,29.10
2023-04-08T07:18:04.976Z,25.43
2023-04-08T07:20:32.405Z,21.73
2023-04-08T07:22:59.048Z,21.60
2023-04-08T07:25:25.676Z,21.43
2023-04-08T07:27:53.034Z,22.33
2023-04-08T07:30:19.915Z,27.60
2023-04-08T07:32:46.680Z,27.53
2023-04-08T07:35:13.387Z,36.63
2023-04-08T07:37:40.091Z,29.47
2023-04-08T07:40:07.480Z,29.80
2023-04-08T07:42:34.073Z,26.93
2023-04-08T07:45:00.773Z,28.27
2023-04-08T07:47:27.496Z,27.47
2023-04-08T07:49:54.735Z,26.23
2023-04-08T07:52:21.557Z,26.20
2023-04-08T07:54:48.147Z,25.70
2023-04-08T07:57:15.040Z,23.37
2023-04-08T07:59:41.929Z,28.90
2023-04-08T08:02:08.622Z,27.70
2023-04-08T08:04:35.432Z,26.50
2023-04-08T08:07:02.262Z,26.97
2023-04-08T08:09:30.585Z,22.33
2023-04-08T08:11:58.812Z,22.80
2023-04-08T08:14:26.970Z,22.60
2023-04-08T08:16:54.812Z,22.57
2023-04-08T08:19:21.654Z,26.27
2023-04-08T08:21:48.884Z,22.50
2023-04-08T08:24:16.707Z,21.87
2023-04-08T08:26:45.278Z,21.27
2023-04-08T08:29:11.829Z,23.60
2023-04-08T08:31:38.491Z,38.77
2023-04-08T08:34:05.225Z,29.60
2023-04-08T08:36:33.455Z,22.57
2023-04-08T08:39:01.477Z,19.20
2023-04-08T08:41:32.814Z,19.37
2023-04-08T08:44:00.122Z,21.67
2023-04-08T08:46:26.728Z,23.87
2023-04-08T08:48:53.483Z,26.53
2023-04-08T08:51:20.583Z,24.07
2023-04-08T08:53:47.234Z,22.27
2023-04-08T08:56:18.442Z,22.00
2023-04-08T08:58:45.928Z,24.47
2023-04-08T09:01:32.769Z,24.63
2023-04-08T09:04:09.020Z,23.30
2023-04-08T09:06:36.998Z,23.17
2023-04-08T09:09:06.289Z,49.33
2023-04-08T09:11:33.522Z,23.73
2023-04-08T09:14:00.137Z,24.93
2023-04-08T09:16:27.474Z,18.00
2023-04-08T09:18:54.329Z,21.33
2023-04-08T09:21:24.884Z,21.40
2023-04-08T09:23:52.907Z,17.83
2023-04-08T09:26:22.378Z,21.97
2023-04-08T09:29:25.079Z,19.57
2023-04-08T09:31:57.584Z,22.00
2023-04-08T09:34:25.341Z,18.33
2023-04-08T09:36:53.127Z,19.30
2023-04-08T09:39:19.997Z,20.17
2023-04-08T09:41:50.039Z,21.60
2023-04-08T09:44:18.637Z,23.00
2023-04-08T09:46:45.115Z,19.43
2023-04-08T09:49:30.048Z,19.80
2023-04-08T09:52:11.231Z,20.63
2023-04-08T09:54:56.000Z,20.60
2023-04-08T09:57:32.247Z,18.73
2023-04-08T10:00:06.077Z,22.67
2023-04-08T10:02:43.806Z,21.80
2023-04-08T10:05:13.618Z,21.60
2023-04-08T10:07:41.951Z,18.37
2023-04-08T10:10:11.957Z,22.47
2023-04-08T10:12:39.110Z,22.33
2023-04-08T10:15:27.984Z,24.00
2023-04-08T10:18:07.940Z,19.27
2023-04-08T10:20:34.768Z,28.23
2023-04-08T10:23:01.907Z,23.43
2023-04-08T10:25:50.893Z,25.03
2023-04-08T10:28:20.314Z,21.67
2023-04-08T10:30:47.598Z,21.43
2023-04-08T10:33:23.429Z,23.57
2023-04-08T10:35:59.949Z,20.93
2023-04-08T10:38:27.506Z,21.27
2023-04-08T10:40:54.820Z,25.03
2023-04-08T10:43:21.424Z,19.93
2023-04-08T10:45:51.601Z,20.63
2023-04-08T10:48:25.082Z,17.43
2023-04-08T10:51:04.009Z,20.77
2023-04-08T10:53:39.429Z,28.67
2023-04-08T10:56:13.502Z,24.47
2023-04-08T10:58:54.423Z,19.27
2023-04-08T11:01:21.574Z,23.83
2023-04-08T11:03:49.018Z,19.93
2023-04-08T11:06:17.610Z,25.03
2023-04-08T11:08:47.520Z,27.33
2023-04-08T11:11:14.999Z,25.87
2023-04-08T11:13:52.984Z,26.10
2023-04-08T11:16:24.539Z,26.30
2023-04-08T11:18:54.307Z,29.83
2023-04-08T11:21:23.198Z,33.47
2023-04-08T11:23:52.209Z,33.30
2023-04-08T11:26:20.302Z,31.37
2023-04-08T11:28:49.363Z,28.93
2023-04-08T11:31:16.597Z,27.40
2023-04-08T11:33:48.851Z,28.27
2023-04-08T11:36:18.131Z,25.70
2023-04-08T11:38:44.893Z,31.27
2023-04-08T11:41:14.299Z,24.40
2023-04-08T11:43:51.711Z,27.43
2023-04-08T11:46:20.738Z,29.23
2023-04-08T11:49:00.567Z,25.93
2023-04-08T11:51:28.228Z,28.23
2023-04-08T11:53:56.298Z,25.67
2023-04-08T11:56:24.277Z,23.33
2023-04-08T11:58:51.988Z,24.10
2023-04-08T12:01:19.421Z,22.60
2023-04-08T12:04:02.393Z,23.60
2023-04-08T12:06:29.580Z,25.63
2023-04-08T12:08:56.926Z,25.40
2023-04-08T12:11:24.212Z,23.53
2023-04-08T12:13:51.603Z,26.43
2023-04-08T12:16:19.214Z,28.43
2023-04-08T12:18:46.912Z,22.80
2023-04-08T12:21:13.538Z,22.77
2023-04-08T12:23:40.190Z,24.80
2023-04-08T12:26:07.612Z,23.07
2023-04-08T12:28:35.274Z,22.37
2023-04-08T12:31:01.955Z,20.57
2023-04-08T12:33:28.789Z,23.13
2023-04-08T12:35:55.466Z,24.70
2023-04-08T12:38:22.130Z,21.67
2023-04-08T12:40:50.203Z,26.43
2023-04-08T12:43:16.959Z,25.63
2023-04-08T12:45:43.734Z,32.70
2023-04-08T12:48:10.713Z,32.03
2023-04-08T12:50:37.444Z,29.50
2023-04-08T12:53:04.184Z,27.77
2023-04-08T12:55:30.814Z,32.30
2023-04-08T12:57:57.539Z,28.53
2023-04-08T13:00:24.285Z,27.00
2023-04-08T13:02:50.911Z,25.60
2023-04-08T13:05:18.333Z,23.17
2023-04-08T13:07:48.265Z,20.07
2023-04-08T13:10:14.845Z,21.47
2023-04-08T13:12:41.542Z,23.57
2023-04-08T13:15:08.937Z,20.63
2023-04-08T13:17:35.900Z,20.87
2023-04-08T13:20:03.062Z,22.13
2023-04-08T13:22:29.676Z,24.50
2023-04-08T13:24:57.062Z,27.37
2023-04-08T13:27:23.583Z,23.60
2023-04-08T13:29:50.185Z,23.07
2023-04-08T13:32:16.997Z,29.30
2023-04-08T13:34:43.941Z,27.73
2023-04-08T13:37:10.572Z,26.07
2023-04-08T13:39:37.167Z,22.33
2023-04-08T13:42:04.334Z,29.00
2023-04-08T13:44:31.110Z,28.47
2023-04-08T13:46:57.724Z,29.07
2023-04-08T13:49:24.451Z,29.70
2023-04-08T13:51:51.065Z,24.23
2023-04-08T13:54:17.681Z,24.27
2023-04-08T13:56:44.308Z,29.87
2023-04-08T13:59:10.901Z,26.70
2023-04-08T14:01:37.707Z,25.33
2023-04-08T14:04:04.439Z,23.60
2023-04-08T14:06:31.548Z,32.80
2023-04-08T14:08:58.428Z,33.30
2023-04-08T14:11:25.122Z,29.53
2023-04-08T14:13:51.860Z,34.17
2023-04-08T14:16:18.753Z,28.93
2023-04-08T14:18:45.813Z,24.03
2023-04-08T14:21:14.322Z,28.77
2023-04-08T14:23:40.922Z,27.57
2023-04-08T14:26:07.848Z,32.53
2023-04-08T14:28:34.376Z,30.60
2023-04-08T14:31:01.206Z,30.20
2023-04-08T14:33:27.842Z,26.07
2023-04-08T14:35:54.484Z,28.10
2023-04-08T14:38:21.584Z,26.43
2023-04-08T14:40:48.210Z,31.03
2023-04-08T14:43:14.841Z,32.80
2023-04-08T14:45:41.483Z,32.60
2023-04-08T14:48:08.329Z,26.03
2023-04-08T14:50:35.018Z,24.67
2023-04-08T14:53:02.015Z,25.70
2023-04-08T14:55:30.242Z,30.87
2023-04-08T14:57:58.068Z,32.13
2023-04-08T15:00:25.870Z,29.13
2023-04-08T15:02:52.602Z,30.50
2023-04-08T15:05:19.394Z,35.03
2023-04-08T15:07:48.590Z,30.33
2023-04-08T15:10:15.324Z,34.13
2023-04-08T15:12:42.173Z,56.13
2023-04-08T15:15:09.705Z,35.07
2023-04-08T15:17:37.008Z,30.73
2023-04-08T15:20:04.033Z,31.50
2023-04-08T15:22:30.636Z,36.67
2023-04-08T15:24:57.194Z,35.23
2023-04-08T15:27:23.830Z,38.53
2023-04-08T15:29:50.376Z,39.33
2023-04-08T15:32:16.963Z,36.63
2023-04-08T15:34:43.596Z,34.93
2023-04-08T15:37:10.204Z,38.20
2023-04-08T15:39:37.153Z,36.53
2023-04-08T15:42:04.150Z,37.97
2023-04-08T15:44:32.555Z,38.33
2023-04-08T15:46:59.232Z,38.67
2023-04-08T15:49:26.756Z,37.30
2023-04-08T15:51:53.800Z,39.17
2023-04-08T15:54:20.457Z,38.70
2023-04-08T15:56:48.065Z,39.83
2023-04-08T15:59:14.708Z,43.40
2023-04-08T16:01:42.210Z,44.47
2023-04-08T16:04:08.969Z,48.73
2023-04-08T16:06:35.614Z,51.57
2023-04-08T16:09:02.615Z,46.80
2023-04-08T16:11:29.902Z,55.30
2023-04-08T16:13:57.464Z,62.23
2023-04-08T16:16:24.089Z,62.07
2023-04-08T16:18:51.058Z,59.33
2023-04-08T16:21:18.707Z,57.23
2023-04-08T16:23:45.419Z,43.80
2023-04-08T16:26:12.982Z,37.27
2023-04-08T16:28:40.178Z,43.40
2023-04-08T16:31:07.116Z,43.53
2023-04-08T16:33:33.856Z,46.73
2023-04-08T16:36:00.984Z,50.70
2023-04-08T16:38:27.669Z,59.03
2023-04-08T16:40:58.503Z,55.10
2023-04-08T16:43:25.884Z,51.50
2023-04-08T16:45:53.405Z,56.27
2023-04-08T16:48:20.162Z,55.20
2023-04-08T16:50:47.515Z,50.50
2023-04-08T16:53:14.186Z,50.50
2023-04-08T16:55:40.793Z,48.00
2023-04-08T16:58:07.718Z,58.80
2023-04-08T17:00:34.652Z,47.93
2023-04-08T17:03:01.814Z,46.03
2023-04-08T17:05:28.538Z,46.03
2023-04-08T17:07:58.830Z,42.10
2023-04-08T17:10:25.870Z,47.13
2023-04-08T17:12:52.494Z,50.00
2023-04-08T17:15:19.173Z,63.37
2023-04-08T17:17:46.719Z,60.13
2023-04-08T17:20:13.681Z,70.73
2023-04-08T17:22:40.388Z,60.90
2023-04-08T17:25:07.492Z,64.20
2023-04-08T17:27:34.193Z,64.77
2023-04-08T17:30:00.935Z,59.23
2023-04-08T17:32:27.786Z,64.70
2023-04-08T17:34:54.551Z,71.13
2023-04-08T17:37:21.346Z,79.57
2023-04-08T17:39:47.962Z,92.77
2023-04-08T17:42:14.537Z,97.10
2023-04-08T17:44:42.699Z,76.53
2023-04-08T17:47:09.378Z,69.73
2023-04-08T17:49:36.064Z,59.20
2023-04-08T17:52:04.215Z,58.47
2023-04-08T17:54:34.627Z,58.03
2023-04-08T17:57:03.319Z,59.23
2023-04-08T17:59:29.981Z,60.33
2023-04-08T18:01:56.695Z,57.43
2023-04-08T18:04:24.105Z,61.37
2023-04-08T18:06:50.813Z,64.73
2023-04-08T18:09:17.517Z,64.63
2023-04-08T18:11:44.107Z,67.33
2023-04-08T18:14:10.919Z,71.27
2023-04-08T18:16:37.650Z,66.27
2023-04-08T18:19:04.288Z,73.17
2023-04-08T18:21:31.633Z,63.73
2023-04-08T18:23:58.296Z,69.30
2023-04-08T18:26:24.919Z,65.27
2023-04-08T18:28:51.535Z,77.73
2023-04-08T18:31:18.246Z,73.47
2023-04-08T18:33:44.904Z,78.90
2023-04-08T18:36:12.856Z,77.57
2023-04-08T18:38:41.136Z,88.33
2023-04-08T18:41:08.573Z,87.63
2023-04-08T18:43:35.683Z,84.53
2023-04-08T18:46:02.383Z,90.07
2023-04-08T18:48:29.636Z,85.43
2023-04-08T18:50:56.849Z,81.60
2023-04-08T18:53:23.524Z,92.47
2023-04-08T18:55:51.341Z,87.17
2023-04-08T18:58:18.597Z,82.03
2023-04-08T19:00:45.275Z,80.80
2023-04-08T19:03:12.117Z,81.70
2023-04-08T19:05:38.966Z,75.20
2023-04-08T19:08:06.318Z,81.90
2023-04-08T19:10:34.367Z,70.33
2023-04-08T19:13:02.466Z,72.00
2023-04-08T19:15:29.565Z,72.90
2023-04-08T19:17:56.708Z,113.27
2023-04-08T19:20:23.707Z,166.30
2023-04-08T19:22:50.503Z,122.17
2023-04-08T19:25:17.577Z,108.40
2023-04-08T19:27:46.085Z,96.93
2023-04-08T19:30:13.557Z,104.07
2023-04-08T19:32:40.810Z,96.93
2023-04-08T19:35:08.080Z,85.07
2023-04-08T19:37:34.882Z,84.43
2023-04-08T19:40:01.713Z,91.70
2023-04-08T19:42:29.324Z,95.00
2023-04-08T19:44:55.976Z,98.40
2023-04-08T19:47:22.873Z,86.60
2023-04-08T19:49:49.862Z,87.67
2023-04-08T19:52:16.622Z,85.10
2023-04-08T19:54:43.706Z,89.00
2023-04-08T19:57:11.775Z,79.50
2023-04-08T19:59:38.370Z,79.67
2023-04-08T20:02:05.273Z,81.43
2023-04-08T20:04:33.008Z,86.03
2023-04-08T20:07:03.981Z,76.30
2023-04-08T20:09:32.853Z,100.53
2023-04-08T20:12:04.740Z,105.30
2023-04-08T20:14:37.989Z,111.93
2023-04-08T20:17:04.710Z,95.10
2023-04-08T20:19:31.421Z,96.60
2023-04-08T20:21:58.385Z,114.03
2023-04-08T20:24:25.003Z,107.43
2023-04-08T20:26:52.593Z,94.80
2023-04-08T20:29:19.344Z,99.27
2023-04-08T20:31:46.083Z,98.50
2023-04-08T20:34:13.015Z,97.47
2023-04-08T20:36:40.092Z,106.83
2023-04-08T20:39:10.938Z,101.70
2023-04-08T20:41:37.822Z,99.17
2023-04-08T20:44:07.125Z,104.03
2023-04-08T20:46:35.329Z,92.07
2023-04-08T20:49:03.912Z,101.30
2023-04-08T20:51:32.691Z,94.50
2023-04-08T20:54:00.069Z,99.03
2023-04-08T20:56:26.715Z,91.33
2023-04-08T20:58:53.781Z,98.83
2023-04-08T21:01:20.716Z,99.80
2023-04-08T21:03:48.187Z,100.00
2023-04-08T21:06:21.840Z,94.37
2023-04-08T21:08:50.180Z,99.03
2023-04-08T21:11:17.595Z,92.17
2023-04-08T21:13:46.581Z,100.17
2023-04-08T21:16:15.330Z,103.97
2023-04-08T21:18:42.525Z,91.67
2023-04-08T21:21:10.736Z,88.10
2023-04-08T21:23:37.511Z,83.60
2023-04-08T21:26:04.209Z,91.00
2023-04-08T21:28:31.523Z,87.30
2023-04-08T21:31:08.058Z,85.70
2023-04-08T21:33:34.994Z,84.57
2023-04-08T21:36:01.760Z,78.87
2023-04-08T21:38:28.375Z,85.33
2023-04-08T21:40:54.950Z,78.50
2023-04-08T21:43:22.583Z,84.67
2023-04-08T21:45:49.218Z,85.53
2023-04-08T21:48:15.866Z,75.10
2023-04-08T21:50:42.800Z,91.97
2023-04-08T21:53:09.455Z,81.77
2023-04-08T21:55:36.069Z,83.20
2023-04-08T21:58:03.127Z,83.47
2023-04-08T22:00:30.321Z,82.07
2023-04-08T22:02:57.217Z,85.03
2023-04-08T22:05:23.890Z,85.53
2023-04-08T22:07:50.529Z,86.83
2023-04-08T22:10:17.184Z,88.10
2023-04-08T22:12:43.911Z,88.70
2023-04-08T22:15:11.265Z,87.70
2023-04-08T22:17:37.876Z,84.60
2023-04-08T22:20:04.833Z,86.90
2023-04-08T22:22:31.501Z,81.97
2023-04-08T22:24:58.136Z,79.93
2023-04-08T22:27:25.546Z,79.00
2023-04-08T22:29:52.163Z,82.77
2023-04-08T22:32:18.741Z,82.90
2023-04-08T22:34:45.409Z,89.00
2023-04-08T22:37:12.148Z,84.23
2023-04-08T22:39:38.804Z,84.80
2023-04-08T22:42:05.612Z,90.83
2023-04-08T22:44:32.211Z,89.53
2023-04-08T22:47:01.743Z,91.40
2023-04-08T22:49:28.369Z,102.67
2023-04-08T22:51:55.167Z,101.67
2023-04-08T22:54:21.821Z,95.47
2023-04-08T22:56:48.410Z,92.37
2023-04-08T22:59:14.999Z,86.70
2023-04-08T23:01:41.866Z,93.60
2023-04-08T23:04:08.600Z,89.50
2023-04-08T23:06:35.223Z,93.77
2023-04-08T23:09:01.850Z,87.63
2023-04-08T23:11:28.428Z,97.60
2023-04-08T23:13:54.992Z,88.97
2023-04-08T23:16:21.826Z,88.07
2023-04-08T23:18:48.553Z,99.23
2023-04-08T23:21:15.217Z,90.70
2023-04-08T23:23:41.860Z,97.87
2023-04-08T23:26:16.980Z,93.23
2023-04-08T23:28:43.609Z,82.57
2023-04-08T23:31:10.487Z,88.23
2023-04-08T23:33:37.097Z,85.33
2023-04-08T23:36:11.458Z,78.43
2023-04-08T23:38:38.238Z,81.60
2023-04-08T23:41:05.284Z,79.30
2023-04-08T23:43:32.097Z,81.27
2023-04-08T23:45:58.770Z,70.97
2023-04-08T23:48:25.708Z,78.20
2023-04-08T23:50:53.135Z,83.77
2023-04-08T23:53:20.426Z,86.20
2023-04-08T23:55:47.109Z,82.33
2023-04-08T23:58:13.924Z,77.97
